sensor_id;sensor_type;location;lat;lon;timestamp;pressure;altitude;pressure_sealevel;temperature;humidity
75045;BME280;63614;56.026;35.960;2023-01-28T00:02:11;99982.69;;;-1.53;75.33
75045;BME280;63614;56.026;35.960;2023-01-28T00:04:38;99990.44;;;-1.55;75.56
75045;BME280;63614;56.026;35.960;2023-01-28T00:07:04;99985.47;;;-1.56;75.64
75045;BME280;63614;56.026;35.960;2023-01-28T00:09:30;99980.00;;;-1.65;75.31
75045;BME280;63614;56.026;35.960;2023-01-28T00:11:56;99980.28;;;-1.69;76.02
75045;BME280;63614;56.026;35.960;2023-01-28T00:14:21;99983.38;;;-1.64;75.83
75045;BME280;63614;56.026;35.960;2023-01-28T00:16:47;99979.56;;;-1.71;76.15
75045;BME280;63614;56.026;35.960;2023-01-28T00:19:13;99979.66;;;-1.73;76.32
75045;BME280;63614;56.026;35.960;2023-01-28T00:21:40;99978.03;;;-1.74;76.12
75045;BME280;63614;56.026;35.960;2023-01-28T00:24:06;99979.91;;;-1.63;76.09
75045;BME280;63614;56.026;35.960;2023-01-28T00:26:34;99984.72;;;-1.58;75.59
75045;BME280;63614;56.026;35.960;2023-01-28T00:28:59;99984.19;;;-1.63;76.07
75045;BME280;63614;56.026;35.960;2023-01-28T00:31:25;99985.75;;;-1.61;75.79
75045;BME280;63614;56.026;35.960;2023-01-28T00:33:53;99978.03;;;-1.74;76.02
75045;BME280;63614;56.026;35.960;2023-01-28T00:36:21;99981.13;;;-1.69;76.11
75045;BME280;63614;56.026;35.960;2023-01-28T00:38:52;99995.47;;;-1.68;76.04
75045;BME280;63614;56.026;35.960;2023-01-28T00:41:20;99990.47;;;-1.69;75.78
75045;BME280;63614;56.026;35.960;2023-01-28T00:43:47;99992.84;;;-1.66;76.08
75045;BME280;63614;56.026;35.960;2023-01-28T00:46:14;99988.56;;;-1.66;75.51
75045;BME280;63614;56.026;35.960;2023-01-28T00:48:41;99985.66;;;-1.59;75.87
75045;BME280;63614;56.026;35.960;2023-01-28T00:51:09;99993.13;;;-1.56;75.47
75045;BME280;63614;56.026;35.960;2023-01-28T00:53:36;99987.47;;;-1.61;75.48
75045;BME280;63614;56.026;35.960;2023-01-28T00:56:04;99984.38;;;-1.67;75.97
75045;BME280;63614;56.026;35.960;2023-01-28T00:58:31;99977.06;;;-1.58;75.53
75045;BME280;63614;56.026;35.960;2023-01-28T01:01:16;99991.91;;;-1.51;75.06
75045;BME280;63614;56.026;35.960;2023-01-28T01:03:43;99991.88;;;-1.36;74.98
75045;BME280;63614;56.026;35.960;2023-01-28T01:06:10;99993.50;;;-1.35;74.82
75045;BME280;63614;56.026;35.960;2023-01-28T01:08:37;99997.97;;;-1.39;74.77
75045;BME280;63614;56.026;35.960;2023-01-28T01:11:09;99998.00;;;-1.53;75.33
75045;BME280;63614;56.026;35.960;2023-01-28T01:13:36;99993.94;;;-1.56;75.12
75045;BME280;63614;56.026;35.960;2023-01-28T01:16:09;99991.84;;;-1.63;75.74
75045;BME280;63614;56.026;35.960;2023-01-28T01:18:36;100001.75;;;-1.59;75.87
75045;BME280;63614;56.026;35.960;2023-01-28T01:21:10;99994.22;;;-1.60;75.92
75045;BME280;63614;56.026;35.960;2023-01-28T01:23:37;100000.88;;;-1.58;75.31
75045;BME280;63614;56.026;35.960;2023-01-28T01:26:04;100003.88;;;-1.66;75.43
75045;BME280;63614;56.026;35.960;2023-01-28T01:28:30;100003.97;;;-1.67;75.61
75045;BME280;63614;56.026;35.960;2023-01-28T01:31:04;100003.97;;;-1.67;75.90
75045;BME280;63614;56.026;35.960;2023-01-28T01:33:32;100005.72;;;-1.96;75.89
75045;BME280;63614;56.026;35.960;2023-01-28T01:35:58;100004.00;;;-1.96;75.68
75045;BME280;63614;56.026;35.960;2023-01-28T01:38:26;100004.09;;;-1.97;75.78
75045;BME280;63614;56.026;35.960;2023-01-28T01:40:55;100011.38;;;-1.91;75.40
75045;BME280;63614;56.026;35.960;2023-01-28T01:43:22;100008.91;;;-1.93;75.29
75045;BME280;63614;56.026;35.960;2023-01-28T01:45:53;100007.53;;;-1.84;74.54
75045;BME280;63614;56.026;35.960;2023-01-28T01:48:27;100007.69;;;-1.73;74.46
75045;BME280;63614;56.026;35.960;2023-01-28T01:51:03;100007.88;;;-1.76;74.17
75045;BME280;63614;56.026;35.960;2023-01-28T01:53:35;100004.69;;;-1.65;73.92
75045;BME280;63614;56.026;35.960;2023-01-28T01:56:04;100010.16;;;-1.71;74.27
75045;BME280;63614;56.026;35.960;2023-01-28T01:58:34;100005.59;;;-1.66;74.15
75045;BME280;63614;56.026;35.960;2023-01-28T02:01:03;100006.34;;;-1.64;73.71
75045;BME280;63614;56.026;35.960;2023-01-28T02:04:07;100007.16;;;-1.78;74.00
75045;BME280;63614;56.026;35.960;2023-01-28T02:06:34;100005.63;;;-1.80;73.89
75045;BME280;63614;56.026;35.960;2023-01-28T02:09:01;100004.28;;;-2.01;73.95
75045;BME280;63614;56.026;35.960;2023-01-28T02:11:30;100015.63;;;-1.92;73.89
75045;BME280;63614;56.026;35.960;2023-01-28T02:14:00;100002.81;;;-1.90;74.25
75045;BME280;63614;56.026;35.960;2023-01-28T02:16:28;100002.59;;;-1.73;73.66
75045;BME280;63614;56.026;35.960;2023-01-28T02:18:55;100007.44;;;-1.83;73.57
75045;BME280;63614;56.026;35.960;2023-01-28T02:21:36;100002.72;;;-1.89;73.95
75045;BME280;63614;56.026;35.960;2023-01-28T02:29:35;100005.97;;;-2.15;73.68
75045;BME280;63614;56.026;35.960;2023-01-28T02:34:42;100009.56;;;-2.18;74.26
75045;BME280;63614;56.026;35.960;2023-01-28T02:39:50;100011.94;;;-2.15;74.27
75045;BME280;63614;56.026;35.960;2023-01-28T02:42:24;100007.63;;;-2.29;74.58
75045;BME280;63614;56.026;35.960;2023-01-28T02:44:51;100006.81;;;-2.29;74.94
75045;BME280;63614;56.026;35.960;2023-01-28T02:47:17;100009.28;;;-2.28;74.72
75045;BME280;63614;56.026;35.960;2023-01-28T02:50:21;100013.44;;;-2.12;74.64
75045;BME280;63614;56.026;35.960;2023-01-28T02:58:40;100020.03;;;-2.08;74.42
75045;BME280;63614;56.026;35.960;2023-01-28T03:01:36;100006.19;;;-2.18;74.61
75045;BME280;63614;56.026;35.960;2023-01-28T03:07:22;100008.84;;;-2.06;74.31
75045;BME280;63614;56.026;35.960;2023-01-28T03:09:51;100004.72;;;-1.94;73.42
75045;BME280;63614;56.026;35.960;2023-01-28T03:12:21;100010.00;;;-1.83;73.45
75045;BME280;63614;56.026;35.960;2023-01-28T03:15:19;100011.19;;;-1.88;73.24
75045;BME280;63614;56.026;35.960;2023-01-28T03:18:21;100011.66;;;-2.10;74.03
75045;BME280;63614;56.026;35.960;2023-01-28T03:21:14;100017.38;;;-2.07;74.28
75045;BME280;63614;56.026;35.960;2023-01-28T03:24:12;100020.38;;;-2.00;74.01
75045;BME280;63614;56.026;35.960;2023-01-28T03:30:23;100011.81;;;-2.28;74.90
75045;BME280;63614;56.026;35.960;2023-01-28T03:33:15;100017.28;;;-2.20;74.62
75045;BME280;63614;56.026;35.960;2023-01-28T03:36:01;100008.53;;;-2.15;74.85
75045;BME280;63614;56.026;35.960;2023-01-28T03:38:45;100019.38;;;-2.12;74.57
75045;BME280;63614;56.026;35.960;2023-01-28T03:41:22;100005.34;;;-2.05;74.58
75045;BME280;63614;56.026;35.960;2023-01-28T03:43:50;100005.97;;;-2.01;74.84
75045;BME280;63614;56.026;35.960;2023-01-28T03:46:16;100011.75;;;-1.97;74.23
75045;BME280;63614;56.026;35.960;2023-01-28T03:48:43;100015.28;;;-2.00;74.30
75045;BME280;63614;56.026;35.960;2023-01-28T03:51:11;100009.91;;;-1.95;74.18
75045;BME280;63614;56.026;35.960;2023-01-28T03:53:38;99988.88;;;-2.28;74.79
75045;BME280;63614;56.026;35.960;2023-01-28T03:56:05;100002.09;;;-2.07;74.61
75045;BME280;63614;56.026;35.960;2023-01-28T03:58:31;100001.28;;;-2.07;74.14
75045;BME280;63614;56.026;35.960;2023-01-28T04:01:19;100002.28;;;-2.10;74.43
75045;BME280;63614;56.026;35.960;2023-01-28T04:03:45;100009.72;;;-2.07;73.82
75045;BME280;63614;56.026;35.960;2023-01-28T04:06:15;100010.53;;;-1.92;74.25
75045;BME280;63614;56.026;35.960;2023-01-28T04:08:49;100013.53;;;-1.99;74.05
75045;BME280;63614;56.026;35.960;2023-01-28T04:11:37;100018.94;;;-1.90;73.67
75045;BME280;63614;56.026;35.960;2023-01-28T04:14:04;100012.19;;;-2.05;73.92
75045;BME280;63614;56.026;35.960;2023-01-28T04:16:44;100018.94;;;-2.04;73.93
75045;BME280;63614;56.026;35.960;2023-01-28T04:19:11;100018.94;;;-2.04;74.35
75045;BME280;63614;56.026;35.960;2023-01-28T04:21:37;100020.72;;;-2.21;74.22
75045;BME280;63614;56.026;35.960;2023-01-28T04:24:04;100015.56;;;-1.90;73.73
75045;BME280;63614;56.026;35.960;2023-01-28T04:26:30;100014.44;;;-1.72;72.58
75045;BME280;63614;56.026;35.960;2023-01-28T04:28:56;100003.78;;;-1.64;72.35
75045;BME280;63614;56.026;35.960;2023-01-28T04:31:22;100005.41;;;-1.63;71.81
75045;BME280;63614;56.026;35.960;2023-01-28T04:33:58;100012.88;;;-1.60;72.37
75045;BME280;63614;56.026;35.960;2023-01-28T04:36:44;100023.53;;;-1.68;71.14
75045;BME280;63614;56.026;35.960;2023-01-28T04:39:38;100028.84;;;-1.71;71.00
75045;BME280;63614;56.026;35.960;2023-01-28T04:42:35;100026.84;;;-1.80;70.28
75045;BME280;63614;56.026;35.960;2023-01-28T04:45:09;100027.91;;;-1.70;70.55
75045;BME280;63614;56.026;35.960;2023-01-28T04:47:58;100026.50;;;-1.74;69.25
75045;BME280;63614;56.026;35.960;2023-01-28T04:50:42;100029.28;;;-1.64;69.09
75045;BME280;63614;56.026;35.960;2023-01-28T04:53:17;100026.19;;;-1.69;69.31
75045;BME280;63614;56.026;35.960;2023-01-28T04:56:05;100022.88;;;-1.57;67.65
75045;BME280;63614;56.026;35.960;2023-01-28T04:58:33;100024.78;;;-1.46;67.43
75045;BME280;63614;56.026;35.960;2023-01-28T05:01:03;100028.31;;;-1.34;67.38
75045;BME280;63614;56.026;35.960;2023-01-28T05:03:30;100033.59;;;-1.37;69.60
75045;BME280;63614;56.026;35.960;2023-01-28T05:05:57;100028.94;;;-1.31;70.00
75045;BME280;63614;56.026;35.960;2023-01-28T05:08:41;100027.16;;;-1.43;70.17
75045;BME280;63614;56.026;35.960;2023-01-28T05:11:07;100036.84;;;-1.62;71.18
75045;BME280;63614;56.026;35.960;2023-01-28T05:13:33;100031.09;;;-1.80;70.53
75045;BME280;63614;56.026;35.960;2023-01-28T05:15:59;100032.94;;;-1.83;70.83
75045;BME280;63614;56.026;35.960;2023-01-28T05:18:25;100028.28;;;-1.90;71.48
75045;BME280;63614;56.026;35.960;2023-01-28T05:21:03;100034.16;;;-2.03;71.76
75045;BME280;63614;56.026;35.960;2023-01-28T05:23:30;100032.31;;;-2.01;72.24
75045;BME280;63614;56.026;35.960;2023-01-28T05:25:58;100040.16;;;-2.04;72.25
75045;BME280;63614;56.026;35.960;2023-01-28T05:28:24;100042.34;;;-1.97;72.21
75045;BME280;63614;56.026;35.960;2023-01-28T05:30:50;100035.84;;;-1.89;71.73
75045;BME280;63614;56.026;35.960;2023-01-28T05:33:17;100044.97;;;-1.85;71.15
75045;BME280;63614;56.026;35.960;2023-01-28T05:35:43;100037.41;;;-1.86;70.98
75045;BME280;63614;56.026;35.960;2023-01-28T05:38:10;100034.78;;;-1.85;70.67
75045;BME280;63614;56.026;35.960;2023-01-28T05:40:36;100034.97;;;-1.88;71.04
75045;BME280;63614;56.026;35.960;2023-01-28T05:43:02;100047.16;;;-1.78;70.89
75045;BME280;63614;56.026;35.960;2023-01-28T05:45:45;100029.84;;;-2.02;70.11
75045;BME280;63614;56.026;35.960;2023-01-28T05:48:34;100036.03;;;-2.21;68.67
75045;BME280;63614;56.026;35.960;2023-01-28T05:51:03;100032.94;;;-2.11;68.58
75045;BME280;63614;56.026;35.960;2023-01-28T05:53:38;100034.31;;;-2.06;68.74
75045;BME280;63614;56.026;35.960;2023-01-28T05:56:05;100031.47;;;-2.01;67.80
75045;BME280;63614;56.026;35.960;2023-01-28T05:58:32;100036.00;;;-2.35;71.10
75045;BME280;63614;56.026;35.960;2023-01-28T06:01:01;100031.84;;;-2.36;71.28
75045;BME280;63614;56.026;35.960;2023-01-28T06:03:35;100027.34;;;-2.47;72.21
75045;BME280;63614;56.026;35.960;2023-01-28T06:06:01;100032.72;;;-2.51;72.24
75045;BME280;63614;56.026;35.960;2023-01-28T06:08:28;100029.31;;;-2.66;73.19
75045;BME280;63614;56.026;35.960;2023-01-28T06:10:53;100027.59;;;-2.66;72.59
75045;BME280;63614;56.026;35.960;2023-01-28T06:13:22;100036.31;;;-2.56;72.77
75045;BME280;63614;56.026;35.960;2023-01-28T06:16:08;100032.16;;;-2.57;72.64
75045;BME280;63614;56.026;35.960;2023-01-28T06:18:54;100046.72;;;-2.44;72.56
75045;BME280;63614;56.026;35.960;2023-01-28T06:21:19;100043.16;;;-2.56;72.01
75045;BME280;63614;56.026;35.960;2023-01-28T06:23:45;100036.78;;;-2.63;72.28
75045;BME280;63614;56.026;35.960;2023-01-28T06:26:12;100046.44;;;-2.54;72.53
75045;BME280;63614;56.026;35.960;2023-01-28T06:28:42;100040.78;;;-2.59;72.43
75045;BME280;63614;56.026;35.960;2023-01-28T06:31:08;100038.44;;;-2.48;71.73
75045;BME280;63614;56.026;35.960;2023-01-28T06:33:33;100052.66;;;-2.44;71.04
75045;BME280;63614;56.026;35.960;2023-01-28T06:36:03;100037.75;;;-2.35;71.23
75045;BME280;63614;56.026;35.960;2023-01-28T06:38:29;100042.41;;;-2.28;70.87
75045;BME280;63614;56.026;35.960;2023-01-28T06:40:55;100036.47;;;-2.28;70.40
75045;BME280;63614;56.026;35.960;2023-01-28T06:43:21;100047.31;;;-2.25;70.03
75045;BME280;63614;56.026;35.960;2023-01-28T06:45:56;100042.44;;;-1.99;69.34
75045;BME280;63614;56.026;35.960;2023-01-28T06:48:22;100052.63;;;-1.99;69.93
75045;BME280;63614;56.026;35.960;2023-01-28T06:50:48;100046.06;;;-2.03;69.77
75045;BME280;63614;56.026;35.960;2023-01-28T06:53:15;100048.25;;;-2.11;69.33
75045;BME280;63614;56.026;35.960;2023-01-28T06:55:41;100048.16;;;-2.10;69.11
75045;BME280;63614;56.026;35.960;2023-01-28T06:58:07;100044.59;;;-2.22;69.72
75045;BME280;63614;56.026;35.960;2023-01-28T07:00:33;100029.69;;;-2.13;69.71
75045;BME280;63614;56.026;35.960;2023-01-28T07:02:59;100040.31;;;-2.07;68.71
75045;BME280;63614;56.026;35.960;2023-01-28T07:05:24;100043.59;;;-2.05;68.31
75045;BME280;63614;56.026;35.960;2023-01-28T07:07:50;100036.03;;;-2.06;68.40
75045;BME280;63614;56.026;35.960;2023-01-28T07:10:16;100041.03;;;-2.05;67.99
75045;BME280;63614;56.026;35.960;2023-01-28T07:12:42;100043.78;;;-2.08;68.71
75045;BME280;63614;56.026;35.960;2023-01-28T07:15:09;100041.66;;;-2.01;68.46
75045;BME280;63614;56.026;35.960;2023-01-28T07:17:42;100039.97;;;-2.01;68.42
75045;BME280;63614;56.026;35.960;2023-01-28T07:20:11;100041.31;;;-2.09;68.83
75045;BME280;63614;56.026;35.960;2023-01-28T07:22:39;100040.50;;;-2.10;68.75
75045;BME280;63614;56.026;35.960;2023-01-28T07:25:06;100044.44;;;-2.04;68.89
75045;BME280;63614;56.026;35.960;2023-01-28T07:27:32;100038.69;;;-1.93;68.38
75045;BME280;63614;56.026;35.960;2023-01-28T07:29:58;100034.22;;;-1.90;68.49
75045;BME280;63614;56.026;35.960;2023-01-28T07:32:24;100030.03;;;-1.91;67.66
75045;BME280;63614;56.026;35.960;2023-01-28T07:34:52;100031.13;;;-1.95;68.75
75045;BME280;63614;56.026;35.960;2023-01-28T07:37:18;100031.50;;;-1.72;68.13
75045;BME280;63614;56.026;35.960;2023-01-28T07:39:44;100035.69;;;-1.86;67.00
75045;BME280;63614;56.026;35.960;2023-01-28T07:42:09;100022.09;;;-1.72;66.79
75045;BME280;63614;56.026;35.960;2023-01-28T07:44:37;100032.47;;;-1.75;66.56
75045;BME280;63614;56.026;35.960;2023-01-28T07:47:04;100028.94;;;-1.72;65.69
75045;BME280;63614;56.026;35.960;2023-01-28T07:49:30;100026.38;;;-1.58;65.59
75045;BME280;63614;56.026;35.960;2023-01-28T07:51:56;100024.75;;;-1.73;66.08
75045;BME280;63614;56.026;35.960;2023-01-28T07:54:22;100024.28;;;-1.66;66.10
75045;BME280;63614;56.026;35.960;2023-01-28T07:56:48;100024.97;;;-1.49;65.77
75045;BME280;63614;56.026;35.960;2023-01-28T07:59:14;100035.44;;;-1.39;65.90
75045;BME280;63614;56.026;35.960;2023-01-28T08:01:39;100031.88;;;-1.37;65.84
75045;BME280;63614;56.026;35.960;2023-01-28T08:04:05;100041.06;;;-1.34;65.02
75045;BME280;63614;56.026;35.960;2023-01-28T08:06:31;100042.38;;;-1.41;65.19
75045;BME280;63614;56.026;35.960;2023-01-28T08:09:04;100042.78;;;-1.20;64.54
75045;BME280;63614;56.026;35.960;2023-01-28T08:11:31;100050.47;;;-1.07;63.67
75045;BME280;63614;56.026;35.960;2023-01-28T08:13:57;100046.63;;;-1.00;63.93
75045;BME280;63614;56.026;35.960;2023-01-28T08:16:23;100051.59;;;-0.84;63.41
75045;BME280;63614;56.026;35.960;2023-01-28T08:18:49;100046.31;;;-0.68;62.94
75045;BME280;63614;56.026;35.960;2023-01-28T08:21:15;100049.03;;;-0.84;62.65
75045;BME280;63614;56.026;35.960;2023-01-28T08:23:40;100052.69;;;-0.88;63.38
75045;BME280;63614;56.026;35.960;2023-01-28T08:26:06;100046.44;;;-0.97;63.78
75045;BME280;63614;56.026;35.960;2023-01-28T08:28:32;100046.47;;;-0.84;63.15
75045;BME280;63614;56.026;35.960;2023-01-28T08:30:59;100048.59;;;-0.91;63.40
75045;BME280;63614;56.026;35.960;2023-01-28T08:33:25;100044.44;;;-0.79;62.97
75045;BME280;63614;56.026;35.960;2023-01-28T08:35:51;100045.97;;;-0.77;62.84
75045;BME280;63614;56.026;35.960;2023-01-28T08:38:16;100036.50;;;-0.75;62.64
75045;BME280;63614;56.026;35.960;2023-01-28T08:40:44;100039.97;;;-1.03;63.99
75045;BME280;63614;56.026;35.960;2023-01-28T08:43:10;100042.47;;;-0.88;63.52
75045;BME280;63614;56.026;35.960;2023-01-28T08:45:38;100046.72;;;-0.75;63.74
75045;BME280;63614;56.026;35.960;2023-01-28T08:48:07;100042.03;;;-0.55;62.54
75045;BME280;63614;56.026;35.960;2023-01-28T08:50:36;100048.41;;;-0.48;61.75
75045;BME280;63614;56.026;35.960;2023-01-28T08:53:04;100038.91;;;-0.33;61.51
75045;BME280;63614;56.026;35.960;2023-01-28T08:55:32;100046.16;;;-0.40;61.67
75045;BME280;63614;56.026;35.960;2023-01-28T08:58:01;100041.34;;;-0.31;61.57
75045;BME280;63614;56.026;35.960;2023-01-28T09:00:27;100041.25;;;-0.30;61.73
75045;BME280;63614;56.026;35.960;2023-01-28T09:02:53;100038.81;;;-0.19;60.99
75045;BME280;63614;56.026;35.960;2023-01-28T09:05:20;100032.34;;;-0.24;61.17
75045;BME280;63614;56.026;35.960;2023-01-28T09:07:47;100023.78;;;-0.36;61.57
75045;BME280;63614;56.026;35.960;2023-01-28T09:10:13;100032.69;;;-0.16;61.45
75045;BME280;63614;56.026;35.960;2023-01-28T09:12:40;100019.47;;;-0.10;60.78
75045;BME280;63614;56.026;35.960;2023-01-28T09:15:07;100021.50;;;-0.28;61.08
75045;BME280;63614;56.026;35.960;2023-01-28T09:17:33;100021.50;;;-0.41;61.53
75045;BME280;63614;56.026;35.960;2023-01-28T09:19:58;100015.78;;;-0.57;61.78
75045;BME280;63614;56.026;35.960;2023-01-28T09:22:24;100010.66;;;-0.57;61.95
75045;BME280;63614;56.026;35.960;2023-01-28T09:24:50;100010.47;;;-0.41;61.64
75045;BME280;63614;56.026;35.960;2023-01-28T09:27:16;100010.28;;;-0.51;61.66
75045;BME280;63614;56.026;35.960;2023-01-28T09:29:42;100006.88;;;-0.51;61.68
75045;BME280;63614;56.026;35.960;2023-01-28T09:32:08;99999.84;;;-0.48;61.64
75045;BME280;63614;56.026;35.960;2023-01-28T09:34:33;100001.88;;;-0.40;61.50
75045;BME280;63614;56.026;35.960;2023-01-28T09:36:59;100003.00;;;-0.44;61.66
75045;BME280;63614;56.026;35.960;2023-01-28T09:39:25;100003.81;;;-0.44;61.67
75045;BME280;63614;56.026;35.960;2023-01-28T09:44:47;100002.06;;;-0.43;61.48
75045;BME280;63614;56.026;35.960;2023-01-28T09:47:26;100007.72;;;-0.12;60.71
75045;BME280;63614;56.026;35.960;2023-01-28T09:49:54;99999.22;;;-0.26;60.32
75045;BME280;63614;56.026;35.960;2023-01-28T09:52:24;100003.63;;;-0.28;60.97
75045;BME280;63614;56.026;35.960;2023-01-28T09:55:00;99998.22;;;-0.23;60.48
75045;BME280;63614;56.026;35.960;2023-01-28T09:57:40;99995.84;;;-0.52;60.94
75045;BME280;63614;56.026;35.960;2023-01-28T10:00:14;99999.22;;;-0.26;61.10
75045;BME280;63614;56.026;35.960;2023-01-28T10:17:42;99972.63;;;-0.10;60.47
75045;BME280;63614;56.026;35.960;2023-01-28T10:22:55;99964.25;;;-0.12;60.28
75045;BME280;63614;56.026;35.960;2023-01-28T10:25:25;99969.78;;;-0.19;60.98
75045;BME280;63614;56.026;35.960;2023-01-28T10:27:52;99972.44;;;-0.20;60.66
75045;BME280;63614;56.026;35.960;2023-01-28T10:30:24;99973.97;;;-0.30;60.89
75045;BME280;63614;56.026;35.960;2023-01-28T10:35:55;99952.00;;;-0.33;61.18
75045;BME280;63614;56.026;35.960;2023-01-28T10:38:22;99952.47;;;-0.02;60.67
75045;BME280;63614;56.026;35.960;2023-01-28T10:40:49;99944.38;;;-0.09;60.64
75045;BME280;63614;56.026;35.960;2023-01-28T10:43:21;99941.22;;;-0.12;60.99
75045;BME280;63614;56.026;35.960;2023-01-28T10:51:38;99945.56;;;-0.51;62.08
75045;BME280;63614;56.026;35.960;2023-01-28T10:54:26;99947.19;;;-0.50;62.34
75045;BME280;63614;56.026;35.960;2023-01-28T10:57:00;99951.81;;;-0.56;62.33
75045;BME280;63614;56.026;35.960;2023-01-28T10:59:29;99941.78;;;-0.46;61.99
75045;BME280;63614;56.026;35.960;2023-01-28T11:05:20;99941.94;;;-0.10;61.71
75045;BME280;63614;56.026;35.960;2023-01-28T11:08:03;99933.78;;;0.22;60.42
75045;BME280;63614;56.026;35.960;2023-01-28T11:10:35;99936.66;;;-0.33;61.96
75045;BME280;63614;56.026;35.960;2023-01-28T11:13:03;99929.69;;;-0.31;62.46
75045;BME280;63614;56.026;35.960;2023-01-28T11:15:31;99933.28;;;-0.21;61.85
75045;BME280;63614;56.026;35.960;2023-01-28T11:18:03;99926.69;;;-0.12;61.22
75045;BME280;63614;56.026;35.960;2023-01-28T11:20:37;99920.47;;;-0.08;61.68
75045;BME280;63614;56.026;35.960;2023-01-28T11:23:05;99918.50;;;-0.04;60.67
75045;BME280;63614;56.026;35.960;2023-01-28T11:25:33;99916.44;;;0.01;61.78
75045;BME280;63614;56.026;35.960;2023-01-28T11:28:22;99924.69;;;0.17;60.68
75045;BME280;63614;56.026;35.960;2023-01-28T11:30:52;99914.81;;;0.00;60.40
75045;BME280;63614;56.026;35.960;2023-01-28T11:33:30;99904.13;;;-0.31;61.53
75045;BME280;63614;56.026;35.960;2023-01-28T11:36:24;99912.00;;;-0.21;61.22
75045;BME280;63614;56.026;35.960;2023-01-28T11:39:02;99903.41;;;-0.20;61.35
75045;BME280;63614;56.026;35.960;2023-01-28T11:41:35;99896.09;;;-0.01;61.24
75045;BME280;63614;56.026;35.960;2023-01-28T11:44:23;99891.91;;;-0.14;60.58
75045;BME280;63614;56.026;35.960;2023-01-28T11:47:14;99895.97;;;0.01;60.77
75045;BME280;63614;56.026;35.960;2023-01-28T11:58:20;99892.34;;;-0.08;60.80
75045;BME280;63614;56.026;35.960;2023-01-28T12:03:32;99885.88;;;-0.50;62.34
75045;BME280;63614;56.026;35.960;2023-01-28T12:17:23;99878.44;;;-0.79;62.77
75045;BME280;63614;56.026;35.960;2023-01-28T12:20:12;99870.16;;;-0.83;62.82
75045;BME280;63614;56.026;35.960;2023-01-28T12:26:02;99860.94;;;-0.98;62.90
75045;BME280;63614;56.026;35.960;2023-01-28T12:34:01;99864.50;;;-1.14;63.67
75045;BME280;63614;56.026;35.960;2023-01-28T12:41:48;99857.50;;;-1.50;65.00
75045;BME280;63614;56.026;35.960;2023-01-28T12:44:39;99854.03;;;-1.49;65.53
75045;BME280;63614;56.026;35.960;2023-01-28T12:47:12;99849.13;;;-1.52;65.62
75045;BME280;63614;56.026;35.960;2023-01-28T12:52:26;99851.34;;;-1.60;65.68
75045;BME280;63614;56.026;35.960;2023-01-28T12:55:03;99854.19;;;-1.65;65.94
75045;BME280;63614;56.026;35.960;2023-01-28T12:57:32;99851.41;;;-1.75;66.02
75045;BME280;63614;56.026;35.960;2023-01-28T13:02:38;99852.00;;;-1.84;66.63
75045;BME280;63614;56.026;35.960;2023-01-28T13:08:00;99858.25;;;-1.75;66.44
75045;BME280;63614;56.026;35.960;2023-01-28T13:10:33;99867.34;;;-1.71;66.50
75045;BME280;63614;56.026;35.960;2023-01-28T13:13:02;99859.25;;;-1.78;66.95
75045;BME280;63614;56.026;35.960;2023-01-28T13:15:29;99859.13;;;-1.89;66.77
75045;BME280;63614;56.026;35.960;2023-01-28T13:18:02;99846.50;;;-2.05;67.42
75045;BME280;63614;56.026;35.960;2023-01-28T13:23:19;99837.28;;;-2.35;68.40
75045;BME280;63614;56.026;35.960;2023-01-28T13:25:51;99839.38;;;-2.42;68.94
75045;BME280;63614;56.026;35.960;2023-01-28T13:28:30;99831.59;;;-2.53;69.18
75045;BME280;63614;56.026;35.960;2023-01-28T13:31:09;99835.59;;;-2.49;69.18
75045;BME280;63614;56.026;35.960;2023-01-28T13:33:40;99825.03;;;-2.71;69.67
75045;BME280;63614;56.026;35.960;2023-01-28T13:36:15;99829.84;;;-2.96;70.65
75045;BME280;63614;56.026;35.960;2023-01-28T13:38:44;99826.84;;;-3.02;70.12
75045;BME280;63614;56.026;35.960;2023-01-28T13:41:10;99828.22;;;-3.11;70.71
75045;BME280;63614;56.026;35.960;2023-01-28T13:43:38;99830.00;;;-3.13;71.28
75045;BME280;63614;56.026;35.960;2023-01-28T13:46:28;99825.56;;;-3.10;71.04
75045;BME280;63614;56.026;35.960;2023-01-28T13:48:56;99824.38;;;-3.18;71.52
75045;BME280;63614;56.026;35.960;2023-01-28T13:51:27;99823.84;;;-3.23;71.42
75045;BME280;63614;56.026;35.960;2023-01-28T13:54:04;99827.97;;;-3.37;72.01
75045;BME280;63614;56.026;35.960;2023-01-28T13:56:40;99829.31;;;-3.45;72.14
75045;BME280;63614;56.026;35.960;2023-01-28T14:10:33;99816.94;;;-3.52;73.21
75045;BME280;63614;56.026;35.960;2023-01-28T14:13:35;99816.53;;;-3.44;72.75
75045;BME280;63614;56.026;35.960;2023-01-28T14:18:42;99805.75;;;-3.63;73.06
75045;BME280;63614;56.026;35.960;2023-01-28T14:21:15;99810.13;;;-3.81;72.46
75045;BME280;63614;56.026;35.960;2023-01-28T14:23:47;99805.91;;;-3.97;73.58
75045;BME280;63614;56.026;35.960;2023-01-28T14:26:25;99799.53;;;-4.20;74.72
75045;BME280;63614;56.026;35.960;2023-01-28T14:31:35;99805.84;;;-4.27;74.94
75045;BME280;63614;56.026;35.960;2023-01-28T14:34:27;99816.81;;;-4.43;74.78
75045;BME280;63614;56.026;35.960;2023-01-28T14:37:04;99807.06;;;-4.50;73.03
75045;BME280;63614;56.026;35.960;2023-01-28T14:39:57;99811.97;;;-4.47;73.45
75045;BME280;63614;56.026;35.960;2023-01-28T14:45:11;99813.06;;;-4.51;74.14
75045;BME280;63614;56.026;35.960;2023-01-28T14:50:17;99802.44;;;-4.76;74.71
75045;BME280;63614;56.026;35.960;2023-01-28T14:58:17;99797.59;;;-4.96;74.07
75045;BME280;63614;56.026;35.960;2023-01-28T15:00:52;99791.06;;;-5.18;74.31
75045;BME280;63614;56.026;35.960;2023-01-28T15:03:19;99789.41;;;-5.19;74.26
75045;BME280;63614;56.026;35.960;2023-01-28T15:05:44;99781.31;;;-5.25;73.60
75045;BME280;63614;56.026;35.960;2023-01-28T15:08:20;99779.19;;;-5.17;73.69
75045;BME280;63614;56.026;35.960;2023-01-28T15:10:48;99774.03;;;-5.16;73.14
75045;BME280;63614;56.026;35.960;2023-01-28T15:13:31;99773.69;;;-5.25;73.23
75045;BME280;63614;56.026;35.960;2023-01-28T15:15:58;99772.44;;;-5.34;72.35